East Kingsford, Michigan
Current Conditions -  °F | °C
As of 1:54 PM on Friday 28 Nov 2014 (Local Time) from KIMT Reporting Station
Overcast Overcast  
Wind Chill:   Ceiling: 3400
Heat Index: 13°   Visibility: 9mi
Dew Point:   Wind: 5mph
Humidity: 77%   Direction: 120°ESE
Pressure: 29.99"   Gusts: NA
Location:  45.9025°N, 88.0366°W
Report Text: KIMT 281954Z AUTO 12004KT 9SM OVC034 M11/M14 A2999 RMK AO2 SNB21E53 SLP186 P0000 T11061139
Loading
Personal Weather Stations






























Interactive Weather Map New forecast layout! Learn more

10-Day Weather Forecast

Advertisements
Track Severe Weather on mobile